sensor_id;sensor_type;location;lat;lon;timestamp;P1;durP1;ratioP1;P2;durP2;ratioP2
29382;SDS011;16365;51.598;7.668;2022-11-20T00:00:16;37.97;;;17.10;;
29382;SDS011;16365;51.598;7.668;2022-11-20T00:02:43;34.22;;;17.15;;
29382;SDS011;16365;51.598;7.668;2022-11-20T00:05:09;37.50;;;17.67;;
29382;SDS011;16365;51.598;7.668;2022-11-20T00:07:36;37.90;;;17.70;;
29382;SDS011;16365;51.598;7.668;2022-11-20T00:10:03;38.38;;;17.50;;
29382;SDS011;16365;51.598;7.668;2022-11-20T00:12:30;39.53;;;17.90;;
29382;SDS011;16365;51.598;7.668;2022-11-20T00:14:57;37.95;;;17.95;;
29382;SDS011;16365;51.598;7.668;2022-11-20T00:17:23;39.03;;;18.80;;
29382;SDS011;16365;51.598;7.668;2022-11-20T00:19:51;35.67;;;18.10;;
29382;SDS011;16365;51.598;7.668;2022-11-20T00:22:18;39.30;;;18.48;;
29382;SDS011;16365;51.598;7.668;2022-11-20T00:24:45;39.83;;;18.50;;
29382;SDS011;16365;51.598;7.668;2022-11-20T00:27:14;42.20;;;18.85;;
29382;SDS011;16365;51.598;7.668;2022-11-20T00:29:41;37.60;;;18.55;;
29382;SDS011;16365;51.598;7.668;2022-11-20T00:32:07;36.20;;;17.17;;
29382;SDS011;16365;51.598;7.668;2022-11-20T00:34:33;38.60;;;18.15;;
29382;SDS011;16365;51.598;7.668;2022-11-20T00:37:00;38.35;;;18.50;;
29382;SDS011;16365;51.598;7.668;2022-11-20T00:39:27;39.80;;;18.27;;
29382;SDS011;16365;51.598;7.668;2022-11-20T00:41:53;37.65;;;18.33;;
29382;SDS011;16365;51.598;7.668;2022-11-20T00:44:21;43.15;;;21.17;;
29382;SDS011;16365;51.598;7.668;2022-11-20T00:46:47;44.35;;;20.50;;
29382;SDS011;16365;51.598;7.668;2022-11-20T00:49:14;34.95;;;17.67;;
29382;SDS011;16365;51.598;7.668;2022-11-20T00:51:40;38.25;;;18.10;;
29382;SDS011;16365;51.598;7.668;2022-11-20T00:54:06;38.13;;;17.70;;
29382;SDS011;16365;51.598;7.668;2022-11-20T00:56:33;38.33;;;17.80;;
29382;SDS011;16365;51.598;7.668;2022-11-20T00:59:00;35.63;;;16.85;;
29382;SDS011;16365;51.598;7.668;2022-11-20T01:01:27;34.45;;;17.40;;
29382;SDS011;16365;51.598;7.668;2022-11-20T01:03:57;33.00;;;16.98;;
29382;SDS011;16365;51.598;7.668;2022-11-20T01:06:32;35.80;;;17.63;;
29382;SDS011;16365;51.598;7.668;2022-11-20T01:09:02;36.08;;;17.65;;
29382;SDS011;16365;51.598;7.668;2022-11-20T01:11:31;35.55;;;18.80;;
29382;SDS011;16365;51.598;7.668;2022-11-20T01:14:01;37.17;;;17.08;;
29382;SDS011;16365;51.598;7.668;2022-11-20T01:16:31;35.20;;;17.70;;
29382;SDS011;16365;51.598;7.668;2022-11-20T01:19:03;39.80;;;18.77;;
29382;SDS011;16365;51.598;7.668;2022-11-20T01:21:31;32.67;;;17.00;;
29382;SDS011;16365;51.598;7.668;2022-11-20T01:23:59;36.78;;;17.73;;
29382;SDS011;16365;51.598;7.668;2022-11-20T01:26:28;35.60;;;16.50;;
29382;SDS011;16365;51.598;7.668;2022-11-20T01:28:56;35.25;;;18.40;;
29382;SDS011;16365;51.598;7.668;2022-11-20T01:31:24;32.60;;;18.17;;
29382;SDS011;16365;51.598;7.668;2022-11-20T01:33:52;36.00;;;17.65;;
29382;SDS011;16365;51.598;7.668;2022-11-20T01:38:47;32.72;;;17.60;;
29382;SDS011;16365;51.598;7.668;2022-11-20T01:41:14;34.85;;;17.05;;
29382;SDS011;16365;51.598;7.668;2022-11-20T01:44:01;40.30;;;19.40;;
29382;SDS011;16365;51.598;7.668;2022-11-20T01:46:29;39.53;;;20.38;;
29382;SDS011;16365;51.598;7.668;2022-11-20T01:49:02;33.25;;;17.67;;
29382;SDS011;16365;51.598;7.668;2022-11-20T01:54:49;36.78;;;18.20;;
29382;SDS011;16365;51.598;7.668;2022-11-20T01:57:20;37.30;;;20.02;;
29382;SDS011;16365;51.598;7.668;2022-11-20T01:59:52;36.13;;;18.10;;
29382;SDS011;16365;51.598;7.668;2022-11-20T02:02:23;36.83;;;18.45;;
29382;SDS011;16365;51.598;7.668;2022-11-20T02:04:49;35.28;;;18.20;;
29382;SDS011;16365;51.598;7.668;2022-11-20T02:07:20;37.70;;;19.38;;
29382;SDS011;16365;51.598;7.668;2022-11-20T02:09:48;37.38;;;18.55;;
29382;SDS011;16365;51.598;7.668;2022-11-20T02:12:15;33.95;;;18.48;;
29382;SDS011;16365;51.598;7.668;2022-11-20T02:15:00;35.45;;;17.70;;
29382;SDS011;16365;51.598;7.668;2022-11-20T02:17:26;36.85;;;19.52;;
29382;SDS011;16365;51.598;7.668;2022-11-20T02:19:53;33.83;;;18.15;;
29382;SDS011;16365;51.598;7.668;2022-11-20T02:22:30;36.72;;;19.13;;
29382;SDS011;16365;51.598;7.668;2022-11-20T02:25:04;33.35;;;18.05;;
29382;SDS011;16365;51.598;7.668;2022-11-20T02:27:33;35.20;;;17.75;;
29382;SDS011;16365;51.598;7.668;2022-11-20T02:30:00;38.88;;;18.42;;
29382;SDS011;16365;51.598;7.668;2022-11-20T02:32:30;36.10;;;17.83;;
29382;SDS011;16365;51.598;7.668;2022-11-20T02:35:06;34.78;;;17.48;;
29382;SDS011;16365;51.598;7.668;2022-11-20T02:37:35;38.40;;;19.00;;
29382;SDS011;16365;51.598;7.668;2022-11-20T02:40:04;38.78;;;19.02;;
29382;SDS011;16365;51.598;7.668;2022-11-20T02:42:31;39.00;;;19.55;;
29382;SDS011;16365;51.598;7.668;2022-11-20T02:44:58;32.65;;;18.30;;
29382;SDS011;16365;51.598;7.668;2022-11-20T02:47:24;35.53;;;19.45;;
29382;SDS011;16365;51.598;7.668;2022-11-20T02:49:50;35.42;;;17.88;;
29382;SDS011;16365;51.598;7.668;2022-11-20T02:52:17;33.03;;;18.17;;
29382;SDS011;16365;51.598;7.668;2022-11-20T02:54:43;37.95;;;18.65;;
29382;SDS011;16365;51.598;7.668;2022-11-20T02:57:09;40.38;;;18.77;;
29382;SDS011;16365;51.598;7.668;2022-11-20T02:59:36;36.13;;;18.63;;
29382;SDS011;16365;51.598;7.668;2022-11-20T03:02:02;32.45;;;17.33;;
29382;SDS011;16365;51.598;7.668;2022-11-20T03:04:29;35.35;;;18.38;;
29382;SDS011;16365;51.598;7.668;2022-11-20T03:06:55;37.80;;;19.85;;
29382;SDS011;16365;51.598;7.668;2022-11-20T03:09:22;34.38;;;19.02;;
29382;SDS011;16365;51.598;7.668;2022-11-20T03:11:49;39.67;;;20.30;;
29382;SDS011;16365;51.598;7.668;2022-11-20T03:14:15;35.03;;;19.42;;
29382;SDS011;16365;51.598;7.668;2022-11-20T03:16:42;36.35;;;19.27;;
29382;SDS011;16365;51.598;7.668;2022-11-20T03:19:08;32.88;;;18.50;;
29382;SDS011;16365;51.598;7.668;2022-11-20T03:21:34;38.97;;;19.95;;
29382;SDS011;16365;51.598;7.668;2022-11-20T03:24:01;34.38;;;18.05;;
29382;SDS011;16365;51.598;7.668;2022-11-20T03:26:28;40.00;;;19.65;;
29382;SDS011;16365;51.598;7.668;2022-11-20T03:28:56;34.85;;;18.35;;
29382;SDS011;16365;51.598;7.668;2022-11-20T03:31:25;34.50;;;18.92;;
29382;SDS011;16365;51.598;7.668;2022-11-20T03:33:53;37.33;;;18.98;;
29382;SDS011;16365;51.598;7.668;2022-11-20T03:36:22;34.15;;;18.38;;
29382;SDS011;16365;51.598;7.668;2022-11-20T03:38:48;37.20;;;18.38;;
29382;SDS011;16365;51.598;7.668;2022-11-20T03:41:17;36.38;;;18.45;;
29382;SDS011;16365;51.598;7.668;2022-11-20T03:43:48;35.90;;;18.23;;
29382;SDS011;16365;51.598;7.668;2022-11-20T03:46:19;33.67;;;19.30;;
29382;SDS011;16365;51.598;7.668;2022-11-20T03:48:47;32.92;;;17.95;;
29382;SDS011;16365;51.598;7.668;2022-11-20T03:51:19;32.40;;;18.60;;
29382;SDS011;16365;51.598;7.668;2022-11-20T03:53:48;38.85;;;19.63;;
29382;SDS011;16365;51.598;7.668;2022-11-20T03:56:16;34.95;;;18.48;;
29382;SDS011;16365;51.598;7.668;2022-11-20T04:03:42;36.13;;;18.58;;
29382;SDS011;16365;51.598;7.668;2022-11-20T04:06:10;37.60;;;18.55;;
29382;SDS011;16365;51.598;7.668;2022-11-20T04:08:38;40.33;;;20.17;;
29382;SDS011;16365;51.598;7.668;2022-11-20T04:11:09;35.75;;;19.08;;
29382;SDS011;16365;51.598;7.668;2022-11-20T04:13:37;36.42;;;19.42;;
29382;SDS011;16365;51.598;7.668;2022-11-20T04:16:04;39.90;;;20.40;;
29382;SDS011;16365;51.598;7.668;2022-11-20T04:18:33;36.20;;;19.40;;
29382;SDS011;16365;51.598;7.668;2022-11-20T04:20:59;36.15;;;18.55;;
29382;SDS011;16365;51.598;7.668;2022-11-20T04:23:27;32.87;;;18.43;;
29382;SDS011;16365;51.598;7.668;2022-11-20T04:25:54;42.15;;;20.25;;
29382;SDS011;16365;51.598;7.668;2022-11-20T04:28:20;39.17;;;19.73;;
29382;SDS011;16365;51.598;7.668;2022-11-20T04:30:47;34.35;;;19.13;;
29382;SDS011;16365;51.598;7.668;2022-11-20T04:33:13;34.92;;;19.88;;
29382;SDS011;16365;51.598;7.668;2022-11-20T04:35:40;38.10;;;19.73;;
29382;SDS011;16365;51.598;7.668;2022-11-20T04:38:06;35.38;;;19.63;;
29382;SDS011;16365;51.598;7.668;2022-11-20T04:40:33;35.08;;;19.38;;
29382;SDS011;16365;51.598;7.668;2022-11-20T04:42:59;36.00;;;19.30;;
29382;SDS011;16365;51.598;7.668;2022-11-20T04:45:26;33.92;;;18.20;;
29382;SDS011;16365;51.598;7.668;2022-11-20T04:47:52;35.75;;;19.48;;
29382;SDS011;16365;51.598;7.668;2022-11-20T04:50:18;35.83;;;19.60;;
29382;SDS011;16365;51.598;7.668;2022-11-20T04:52:45;36.17;;;18.30;;
29382;SDS011;16365;51.598;7.668;2022-11-20T04:55:11;39.13;;;19.27;;
29382;SDS011;16365;51.598;7.668;2022-11-20T04:57:38;35.35;;;18.52;;
29382;SDS011;16365;51.598;7.668;2022-11-20T05:00:04;38.20;;;18.85;;
29382;SDS011;16365;51.598;7.668;2022-11-20T05:02:31;33.30;;;17.60;;
29382;SDS011;16365;51.598;7.668;2022-11-20T05:04:58;37.85;;;20.13;;
29382;SDS011;16365;51.598;7.668;2022-11-20T05:07:24;37.97;;;19.60;;
29382;SDS011;16365;51.598;7.668;2022-11-20T05:09:51;39.70;;;20.13;;
29382;SDS011;16365;51.598;7.668;2022-11-20T05:12:19;36.35;;;19.70;;
29382;SDS011;16365;51.598;7.668;2022-11-20T05:14:45;36.30;;;20.13;;
29382;SDS011;16365;51.598;7.668;2022-11-20T05:17:12;35.85;;;19.85;;
29382;SDS011;16365;51.598;7.668;2022-11-20T05:19:38;34.00;;;18.73;;
29382;SDS011;16365;51.598;7.668;2022-11-20T05:22:04;39.42;;;20.02;;
29382;SDS011;16365;51.598;7.668;2022-11-20T05:24:31;36.75;;;19.20;;
29382;SDS011;16365;51.598;7.668;2022-11-20T05:26:59;35.50;;;19.77;;
29382;SDS011;16365;51.598;7.668;2022-11-20T05:29:26;36.63;;;19.77;;
29382;SDS011;16365;51.598;7.668;2022-11-20T05:31:52;36.22;;;18.85;;
29382;SDS011;16365;51.598;7.668;2022-11-20T05:34:19;35.20;;;19.08;;
29382;SDS011;16365;51.598;7.668;2022-11-20T05:36:45;34.67;;;19.15;;
29382;SDS011;16365;51.598;7.668;2022-11-20T05:39:12;35.33;;;19.40;;
29382;SDS011;16365;51.598;7.668;2022-11-20T05:41:38;36.25;;;19.35;;
29382;SDS011;16365;51.598;7.668;2022-11-20T05:44:05;33.83;;;18.17;;
29382;SDS011;16365;51.598;7.668;2022-11-20T05:46:31;35.15;;;19.38;;
29382;SDS011;16365;51.598;7.668;2022-11-20T05:48:58;35.20;;;18.30;;
29382;SDS011;16365;51.598;7.668;2022-11-20T05:51:25;34.85;;;18.77;;
29382;SDS011;16365;51.598;7.668;2022-11-20T05:53:52;35.17;;;18.50;;
29382;SDS011;16365;51.598;7.668;2022-11-20T05:56:19;37.83;;;19.85;;
29382;SDS011;16365;51.598;7.668;2022-11-20T05:58:47;36.30;;;19.17;;
29382;SDS011;16365;51.598;7.668;2022-11-20T06:01:19;32.95;;;18.02;;
29382;SDS011;16365;51.598;7.668;2022-11-20T06:03:48;36.95;;;18.27;;
29382;SDS011;16365;51.598;7.668;2022-11-20T06:06:17;38.08;;;19.23;;
29382;SDS011;16365;51.598;7.668;2022-11-20T06:08:44;38.45;;;19.75;;
29382;SDS011;16365;51.598;7.668;2022-11-20T06:11:12;36.53;;;18.55;;
29382;SDS011;16365;51.598;7.668;2022-11-20T06:13:40;34.60;;;18.42;;
29382;SDS011;16365;51.598;7.668;2022-11-20T06:16:08;32.95;;;17.35;;
29382;SDS011;16365;51.598;7.668;2022-11-20T06:18:36;32.33;;;17.75;;
29382;SDS011;16365;51.598;7.668;2022-11-20T06:21:06;35.03;;;18.27;;
29382;SDS011;16365;51.598;7.668;2022-11-20T06:23:37;34.65;;;16.98;;
29382;SDS011;16365;51.598;7.668;2022-11-20T06:26:05;37.38;;;19.33;;
29382;SDS011;16365;51.598;7.668;2022-11-20T06:28:33;36.17;;;18.73;;
29382;SDS011;16365;51.598;7.668;2022-11-20T06:31:00;39.03;;;18.73;;
29382;SDS011;16365;51.598;7.668;2022-11-20T06:33:27;36.92;;;19.13;;
29382;SDS011;16365;51.598;7.668;2022-11-20T06:35:57;35.40;;;17.02;;
29382;SDS011;16365;51.598;7.668;2022-11-20T06:38:31;32.85;;;17.88;;
29382;SDS011;16365;51.598;7.668;2022-11-20T06:40:57;34.95;;;17.70;;
29382;SDS011;16365;51.598;7.668;2022-11-20T06:43:24;34.55;;;18.30;;
29382;SDS011;16365;51.598;7.668;2022-11-20T06:45:52;33.55;;;18.65;;
29382;SDS011;16365;51.598;7.668;2022-11-20T06:48:19;37.78;;;18.90;;
29382;SDS011;16365;51.598;7.668;2022-11-20T06:50:46;31.42;;;17.45;;
29382;SDS011;16365;51.598;7.668;2022-11-20T06:53:13;33.90;;;17.25;;
29382;SDS011;16365;51.598;7.668;2022-11-20T06:55:43;36.45;;;18.20;;
29382;SDS011;16365;51.598;7.668;2022-11-20T06:58:16;32.25;;;16.73;;
29382;SDS011;16365;51.598;7.668;2022-11-20T07:00:43;34.03;;;18.60;;
29382;SDS011;16365;51.598;7.668;2022-11-20T07:03:12;34.95;;;18.35;;
29382;SDS011;16365;51.598;7.668;2022-11-20T07:05:38;36.08;;;18.13;;
29382;SDS011;16365;51.598;7.668;2022-11-20T07:08:05;34.80;;;18.77;;
29382;SDS011;16365;51.598;7.668;2022-11-20T07:10:32;35.50;;;18.87;;
29382;SDS011;16365;51.598;7.668;2022-11-20T07:12:59;33.35;;;17.58;;
29382;SDS011;16365;51.598;7.668;2022-11-20T07:15:26;34.28;;;18.23;;
29382;SDS011;16365;51.598;7.668;2022-11-20T07:17:52;35.42;;;18.65;;
29382;SDS011;16365;51.598;7.668;2022-11-20T07:20:19;38.30;;;19.90;;
29382;SDS011;16365;51.598;7.668;2022-11-20T07:22:46;34.50;;;19.35;;
29382;SDS011;16365;51.598;7.668;2022-11-20T07:25:18;38.22;;;19.02;;
29382;SDS011;16365;51.598;7.668;2022-11-20T07:27:45;36.28;;;20.05;;
29382;SDS011;16365;51.598;7.668;2022-11-20T07:30:11;34.08;;;18.30;;
29382;SDS011;16365;51.598;7.668;2022-11-20T07:32:41;35.42;;;18.30;;
29382;SDS011;16365;51.598;7.668;2022-11-20T07:35:08;36.75;;;19.75;;
29382;SDS011;16365;51.598;7.668;2022-11-20T07:37:35;38.17;;;18.85;;
29382;SDS011;16365;51.598;7.668;2022-11-20T07:40:01;33.70;;;18.60;;
29382;SDS011;16365;51.598;7.668;2022-11-20T07:42:28;36.28;;;19.42;;
29382;SDS011;16365;51.598;7.668;2022-11-20T07:44:55;37.10;;;18.27;;
29382;SDS011;16365;51.598;7.668;2022-11-20T07:47:21;37.15;;;19.75;;
29382;SDS011;16365;51.598;7.668;2022-11-20T07:49:48;34.50;;;18.80;;
29382;SDS011;16365;51.598;7.668;2022-11-20T07:52:14;37.08;;;19.08;;
29382;SDS011;16365;51.598;7.668;2022-11-20T07:54:41;35.63;;;19.30;;
29382;SDS011;16365;51.598;7.668;2022-11-20T07:57:07;33.65;;;18.25;;
29382;SDS011;16365;51.598;7.668;2022-11-20T07:59:34;37.30;;;19.00;;
29382;SDS011;16365;51.598;7.668;2022-11-20T08:02:00;34.50;;;17.90;;
29382;SDS011;16365;51.598;7.668;2022-11-20T08:04:29;36.30;;;19.48;;
29382;SDS011;16365;51.598;7.668;2022-11-20T08:06:55;37.55;;;20.00;;
29382;SDS011;16365;51.598;7.668;2022-11-20T08:09:22;36.83;;;18.27;;
29382;SDS011;16365;51.598;7.668;2022-11-20T08:11:49;38.33;;;20.38;;
29382;SDS011;16365;51.598;7.668;2022-11-20T08:14:34;40.65;;;18.60;;
29382;SDS011;16365;51.598;7.668;2022-11-20T08:17:00;39.28;;;19.40;;
29382;SDS011;16365;51.598;7.668;2022-11-20T08:19:26;43.78;;;20.35;;
29382;SDS011;16365;51.598;7.668;2022-11-20T08:21:54;40.30;;;21.73;;
29382;SDS011;16365;51.598;7.668;2022-11-20T08:24:21;44.70;;;20.77;;
29382;SDS011;16365;51.598;7.668;2022-11-20T08:26:50;45.22;;;20.60;;
29382;SDS011;16365;51.598;7.668;2022-11-20T08:29:17;52.70;;;24.88;;
29382;SDS011;16365;51.598;7.668;2022-11-20T08:31:44;47.58;;;22.50;;
29382;SDS011;16365;51.598;7.668;2022-11-20T08:34:11;45.28;;;21.45;;
29382;SDS011;16365;51.598;7.668;2022-11-20T08:36:44;43.55;;;22.33;;
29382;SDS011;16365;51.598;7.668;2022-11-20T08:39:11;45.63;;;23.20;;
29382;SDS011;16365;51.598;7.668;2022-11-20T08:41:38;41.85;;;22.60;;
29382;SDS011;16365;51.598;7.668;2022-11-20T08:44:05;40.50;;;20.65;;
29382;SDS011;16365;51.598;7.668;2022-11-20T08:46:37;43.15;;;22.45;;
29382;SDS011;16365;51.598;7.668;2022-11-20T08:49:05;40.53;;;21.80;;
29382;SDS011;16365;51.598;7.668;2022-11-20T08:51:33;41.72;;;22.10;;
29382;SDS011;16365;51.598;7.668;2022-11-20T08:53:59;41.50;;;22.60;;
29382;SDS011;16365;51.598;7.668;2022-11-20T08:56:26;44.15;;;22.83;;
29382;SDS011;16365;51.598;7.668;2022-11-20T08:58:52;44.03;;;23.48;;
29382;SDS011;16365;51.598;7.668;2022-11-20T09:01:40;43.22;;;23.23;;
29382;SDS011;16365;51.598;7.668;2022-11-20T09:04:07;44.28;;;24.17;;
29382;SDS011;16365;51.598;7.668;2022-11-20T09:06:33;41.33;;;21.48;;
29382;SDS011;16365;51.598;7.668;2022-11-20T09:09:01;42.03;;;22.20;;
29382;SDS011;16365;51.598;7.668;2022-11-20T09:11:43;43.00;;;22.90;;
29382;SDS011;16365;51.598;7.668;2022-11-20T09:14:10;42.97;;;23.17;;
29382;SDS011;16365;51.598;7.668;2022-11-20T09:16:36;47.60;;;24.02;;
29382;SDS011;16365;51.598;7.668;2022-11-20T09:19:02;43.92;;;23.90;;
29382;SDS011;16365;51.598;7.668;2022-11-20T09:21:49;41.38;;;22.52;;
29382;SDS011;16365;51.598;7.668;2022-11-20T09:24:15;46.60;;;23.92;;
29382;SDS011;16365;51.598;7.668;2022-11-20T09:26:42;49.15;;;23.95;;
29382;SDS011;16365;51.598;7.668;2022-11-20T09:29:08;42.95;;;23.08;;
29382;SDS011;16365;51.598;7.668;2022-11-20T09:31:35;42.47;;;23.02;;
29382;SDS011;16365;51.598;7.668;2022-11-20T09:34:01;51.83;;;24.35;;
29382;SDS011;16365;51.598;7.668;2022-11-20T09:36:28;45.60;;;23.42;;
29382;SDS011;16365;51.598;7.668;2022-11-20T09:38:55;44.25;;;24.85;;
29382;SDS011;16365;51.598;7.668;2022-11-20T09:41:36;47.07;;;25.60;;
29382;SDS011;16365;51.598;7.668;2022-11-20T09:50:26;37.72;;;21.90;;
29382;SDS011;16365;51.598;7.668;2022-11-20T09:56:19;43.83;;;23.63;;
29382;SDS011;16365;51.598;7.668;2022-11-20T09:58:49;44.08;;;22.85;;
29382;SDS011;16365;51.598;7.668;2022-11-20T10:01:18;41.88;;;23.50;;
29382;SDS011;16365;51.598;7.668;2022-11-20T10:03:59;45.33;;;23.30;;
29382;SDS011;16365;51.598;7.668;2022-11-20T10:09:52;43.33;;;22.88;;
29382;SDS011;16365;51.598;7.668;2022-11-20T10:18:08;32.30;;;17.40;;
29382;SDS011;16365;51.598;7.668;2022-11-20T10:20:40;25.25;;;14.65;;
29382;SDS011;16365;51.598;7.668;2022-11-20T10:23:37;25.30;;;14.00;;
29382;SDS011;16365;51.598;7.668;2022-11-20T10:26:28;29.08;;;17.13;;
29382;SDS011;16365;51.598;7.668;2022-11-20T10:29:18;27.38;;;15.57;;
29382;SDS011;16365;51.598;7.668;2022-11-20T10:31:51;27.55;;;15.57;;
29382;SDS011;16365;51.598;7.668;2022-11-20T10:35:10;27.63;;;14.45;;
29382;SDS011;16365;51.598;7.668;2022-11-20T10:37:21;27.52;;;14.45;;
29382;SDS011;16365;51.598;7.668;2022-11-20T10:40:05;32.42;;;16.80;;
29382;SDS011;16365;51.598;7.668;2022-11-20T10:42:55;27.02;;;14.13;;
29382;SDS011;16365;51.598;7.668;2022-11-20T10:47:52;27.98;;;14.50;;
29382;SDS011;16365;51.598;7.668;2022-11-20T10:50:22;32.50;;;14.90;;
29382;SDS011;16365;51.598;7.668;2022-11-20T10:56:11;30.13;;;15.30;;
29382;SDS011;16365;51.598;7.668;2022-11-20T10:59:00;29.33;;;14.35;;
29382;SDS011;16365;51.598;7.668;2022-11-20T11:01:39;29.48;;;15.80;;
29382;SDS011;16365;51.598;7.668;2022-11-20T11:04:52;30.00;;;14.05;;
29382;SDS011;16365;51.598;7.668;2022-11-20T11:07:05;27.58;;;14.48;;
29382;SDS011;16365;51.598;7.668;2022-11-20T11:09:41;32.70;;;15.15;;
29382;SDS011;16365;51.598;7.668;2022-11-20T11:12:10;32.28;;;17.13;;
29382;SDS011;16365;51.598;7.668;2022-11-20T11:14:47;30.25;;;16.67;;
29382;SDS011;16365;51.598;7.668;2022-11-20T11:17:31;31.20;;;16.65;;
29382;SDS011;16365;51.598;7.668;2022-11-20T11:20:04;31.98;;;17.80;;
29382;SDS011;16365;51.598;7.668;2022-11-20T11:22:34;36.38;;;18.75;;
29382;SDS011;16365;51.598;7.668;2022-11-20T11:25:09;32.13;;;17.63;;
29382;SDS011;16365;51.598;7.668;2022-11-20T11:27:46;38.10;;;20.67;;
29382;SDS011;16365;51.598;7.668;2022-11-20T11:30:15;37.05;;;19.95;;
29382;SDS011;16365;51.598;7.668;2022-11-20T11:32:43;40.35;;;21.23;;
29382;SDS011;16365;51.598;7.668;2022-11-20T11:35:45;35.15;;;18.77;;
29382;SDS011;16365;51.598;7.668;2022-11-20T11:38:19;36.10;;;17.90;;
29382;SDS011;16365;51.598;7.668;2022-11-20T11:40:49;34.25;;;17.23;;
29382;SDS011;16365;51.598;7.668;2022-11-20T11:43:21;35.85;;;20.10;;
29382;SDS011;16365;51.598;7.668;2022-11-20T11:46:24;34.78;;;19.70;;
29382;SDS011;16365;51.598;7.668;2022-11-20T11:48:57;46.35;;;26.55;;
29382;SDS011;16365;51.598;7.668;2022-11-20T11:51:29;38.70;;;20.67;;
29382;SDS011;16365;51.598;7.668;2022-11-20T11:54:02;33.80;;;18.55;;
29382;SDS011;16365;51.598;7.668;2022-11-20T11:56:34;35.28;;;19.17;;
29382;SDS011;16365;51.598;7.668;2022-11-20T11:59:04;47.85;;;25.23;;
29382;SDS011;16365;51.598;7.668;2022-11-20T12:01:43;38.60;;;22.02;;
29382;SDS011;16365;51.598;7.668;2022-11-20T12:04:36;33.15;;;19.38;;
29382;SDS011;16365;51.598;7.668;2022-11-20T12:07:30;36.25;;;19.45;;
29382;SDS011;16365;51.598;7.668;2022-11-20T12:12:52;34.92;;;18.63;;
29382;SDS011;16365;51.598;7.668;2022-11-20T12:15:29;39.58;;;20.77;;
29382;SDS011;16365;51.598;7.668;2022-11-20T12:17:57;43.05;;;22.10;;
29382;SDS011;16365;51.598;7.668;2022-11-20T12:20:25;38.58;;;20.38;;
29382;SDS011;16365;51.598;7.668;2022-11-20T12:23:01;39.05;;;20.67;;
29382;SDS011;16365;51.598;7.668;2022-11-20T12:33:47;30.33;;;16.35;;
29382;SDS011;16365;51.598;7.668;2022-11-20T12:36:36;28.98;;;16.60;;
29382;SDS011;16365;51.598;7.668;2022-11-20T12:39:31;32.05;;;18.20;;
29382;SDS011;16365;51.598;7.668;2022-11-20T12:42:17;33.92;;;18.50;;
29382;SDS011;16365;51.598;7.668;2022-11-20T12:45:35;26.77;;;14.77;;
29382;SDS011;16365;51.598;7.668;2022-11-20T12:48:23;36.17;;;19.50;;
29382;SDS011;16365;51.598;7.668;2022-11-20T12:53:43;37.97;;;19.83;;
29382;SDS011;16365;51.598;7.668;2022-11-20T13:02:14;37.17;;;19.35;;
29382;SDS011;16365;51.598;7.668;2022-11-20T13:05:17;36.63;;;20.52;;
29382;SDS011;16365;51.598;7.668;2022-11-20T13:07:54;36.70;;;19.67;;
29382;SDS011;16365;51.598;7.668;2022-11-20T13:10:25;31.85;;;18.52;;
29382;SDS011;16365;51.598;7.668;2022-11-20T13:13:02;35.15;;;19.42;;
29382;SDS011;16365;51.598;7.668;2022-11-20T13:18:21;35.20;;;19.67;;
29382;SDS011;16365;51.598;7.668;2022-11-20T13:20:47;35.58;;;20.42;;
29382;SDS011;16365;51.598;7.668;2022-11-20T13:23:26;34.20;;;20.55;;
29382;SDS011;16365;51.598;7.668;2022-11-20T13:26:05;33.10;;;19.05;;
29382;SDS011;16365;51.598;7.668;2022-11-20T13:28:39;33.40;;;18.85;;
29382;SDS011;16365;51.598;7.668;2022-11-20T13:31:23;28.45;;;16.38;;
29382;SDS011;16365;51.598;7.668;2022-11-20T13:33:55;28.85;;;16.85;;
29382;SDS011;16365;51.598;7.668;2022-11-20T13:36:25;30.92;;;16.63;;
29382;SDS011;16365;51.598;7.668;2022-11-20T13:38:54;28.80;;;16.73;;
29382;SDS011;16365;51.598;7.668;2022-11-20T13:41:25;27.75;;;16.23;;
29382;SDS011;16365;51.598;7.668;2022-11-20T13:44:12;29.52;;;17.02;;
29382;SDS011;16365;51.598;7.668;2022-11-20T13:47:00;32.72;;;17.10;;
29382;SDS011;16365;51.598;7.668;2022-11-20T13:49:34;31.23;;;16.92;;
29382;SDS011;16365;51.598;7.668;2022-11-20T14:02:50;30.23;;;16.67;;
29382;SDS011;16365;51.598;7.668;2022-11-20T14:05:25;30.08;;;16.60;;
29382;SDS011;16365;51.598;7.668;2022-11-20T14:07:52;28.42;;;15.80;;
29382;SDS011;16365;51.598;7.668;2022-11-20T14:10:21;31.47;;;18.57;;
29382;SDS011;16365;51.598;7.668;2022-11-20T14:12:56;32.72;;;17.90;;
29382;SDS011;16365;51.598;7.668;2022-11-20T14:15:28;33.10;;;18.00;;
29382;SDS011;16365;51.598;7.668;2022-11-20T14:17:56;30.33;;;16.27;;
29382;SDS011;16365;51.598;7.668;2022-11-20T14:20:24;28.50;;;15.73;;
29382;SDS011;16365;51.598;7.668;2022-11-20T14:22:53;28.92;;;14.82;;
29382;SDS011;16365;51.598;7.668;2022-11-20T14:25:24;28.25;;;16.55;;
29382;SDS011;16365;51.598;7.668;2022-11-20T14:27:57;33.20;;;18.75;;
29382;SDS011;16365;51.598;7.668;2022-11-20T14:30:29;33.97;;;18.33;;
29382;SDS011;16365;51.598;7.668;2022-11-20T14:33:05;39.20;;;21.27;;
29382;SDS011;16365;51.598;7.668;2022-11-20T14:35:35;36.13;;;20.70;;
29382;SDS011;16365;51.598;7.668;2022-11-20T14:38:08;40.03;;;22.42;;
29382;SDS011;16365;51.598;7.668;2022-11-20T14:40:38;36.67;;;20.52;;
29382;SDS011;16365;51.598;7.668;2022-11-20T14:43:17;35.33;;;18.95;;
29382;SDS011;16365;51.598;7.668;2022-11-20T14:46:01;36.53;;;20.50;;
29382;SDS011;16365;51.598;7.668;2022-11-20T14:49:04;35.05;;;19.55;;
29382;SDS011;16365;51.598;7.668;2022-11-20T14:51:34;36.30;;;18.23;;
29382;SDS011;16365;51.598;7.668;2022-11-20T14:54:17;33.33;;;18.13;;
29382;SDS011;16365;51.598;7.668;2022-11-20T14:56:57;31.50;;;17.80;;
29382;SDS011;16365;51.598;7.668;2022-11-20T14:59:32;31.65;;;18.83;;
29382;SDS011;16365;51.598;7.668;2022-11-20T15:02:02;36.13;;;19.63;;
29382;SDS011;16365;51.598;7.668;2022-11-20T15:04:32;32.17;;;18.13;;
29382;SDS011;16365;51.598;7.668;2022-11-20T15:07:00;32.03;;;17.13;;
29382;SDS011;16365;51.598;7.668;2022-11-20T15:09:27;28.88;;;17.35;;
29382;SDS011;16365;51.598;7.668;2022-11-20T15:11:57;32.70;;;18.27;;
29382;SDS011;16365;51.598;7.668;2022-11-20T15:14:30;31.83;;;16.98;;
29382;SDS011;16365;51.598;7.668;2022-11-20T15:17:03;32.55;;;18.00;;
29382;SDS011;16365;51.598;7.668;2022-11-20T15:19:29;28.67;;;16.83;;
29382;SDS011;16365;51.598;7.668;2022-11-20T15:21:56;35.60;;;17.15;;
29382;SDS011;16365;51.598;7.668;2022-11-20T15:24:22;32.83;;;17.75;;
29382;SDS011;16365;51.598;7.668;2022-11-20T15:26:49;31.35;;;17.55;;
29382;SDS011;16365;51.598;7.668;2022-11-20T15:29:16;26.45;;;15.48;;
29382;SDS011;16365;51.598;7.668;2022-11-20T15:31:47;28.00;;;16.45;;
29382;SDS011;16365;51.598;7.668;2022-11-20T15:34:14;29.83;;;15.32;;
29382;SDS011;16365;51.598;7.668;2022-11-20T15:36:41;25.48;;;14.93;;
29382;SDS011;16365;51.598;7.668;2022-11-20T15:39:08;29.77;;;16.75;;
29382;SDS011;16365;51.598;7.668;2022-11-20T15:41:35;27.95;;;16.52;;
29382;SDS011;16365;51.598;7.668;2022-11-20T15:44:03;29.55;;;16.40;;
29382;SDS011;16365;51.598;7.668;2022-11-20T15:46:31;33.20;;;17.02;;
29382;SDS011;16365;51.598;7.668;2022-11-20T15:49:03;30.80;;;16.45;;